Pagina principale
METAR-TAF:

METAR-TAF

Aeroporti :

Base aerea di Incirlik

Incirlik, Turchia

latitudine: 37-00N, longitudine: 035-25E, altezza: 73 m

Osservazione

Il bollettino è stato emesso 32 minuti fa, alle 13:20 UTC
Vento calmo
Temperature 33°C
Umidità 23%
Pressione 1014 hPa
Visibilità 10 km o più
nessuna nube inferiore a 1500 m e nessun cumulonembo

METAR: LTAG 261320Z 00000KT CAVOK 33/09 Q1014 NOSIG

Ora: 16:52 (13:52 UTC)

Previsione

Il bollettino è stato emesso 3 ore e 12 minuti fa, alle 10:40 UTC
Previsione valida dal 26 alle 12 UTC al 27 alle 12 UTC
Vento 2 kt da direzioni variabili
Visibilità 10 km o più
nessuna nube inferiore a 1500 m e nessun cumulonembo

TAF: LTAG 261040Z 2612/2712 VRB02KT CAVOK

Osservazioni e previsioni meteorologiche di più di 4000 aeroporti (messaggi METAR e TAF).

Le stazioni disponibili sono rappresentate dai dischi gialli e rossi sulla carta.

Puntare il mouse per vedere il nome della stazione.

Clicca sopra per visualizzare le osservazioni e previsioni meteorologiche.

Per cambiare la mappa : fare clic sui pulsanti verdi con una croce nera per ingrandire, il pulsante verde con un trattino per diminuire, o sulla freccia verde per le mappe adiacenti.


METAR-TAF: